Time;durP1;ratioP1;P1;durP2;ratioP2;P2;SDS_P1;SDS_P2;PMS_P1;PMS_P2;Temp;Humidity;BMP_temperature;BMP_pressure;BME280_temperature;BME280_humidity;BME280_pressure;Samples;Min_cycle;Max_cycle;Signal;HPM_P1;HPM_P2
2022/10/04 00:01:19;;;;;;;;;;;;;;;;;;4982545;28;19949;-77
2022/10/04 00:03:50;;;;;;;;;;;;;;;;;;4981276;28;19914;-77
2022/10/04 00:06:19;;;;;;;;;;;;;;;;;;4982444;28;20202;-77
2022/10/04 00:08:50;;;;;;;;;;;;;;;;;;4982073;28;19910;-77
2022/10/04 00:11:19;;;;;;;;;;;;;;;;;;4982524;28;19957;-77
2022/10/04 00:13:49;;;;;;;;;;;;;;;;;;4974368;28;19958;-77
2022/10/04 00:16:20;;;;;;;;;;;;;;;;;;4968021;28;20221;-77
2022/10/04 00:18:45;;;;;;;;;;;;;;;;;;4965723;28;19910;-78
2022/10/04 00:21:10;;;;;;;;;;;;;;;;;;4967266;28;19994;-78
2022/10/04 00:23:35;;;;;;;;;;;;;;;;;;4967917;28;19918;-77
2022/10/04 00:26:03;;;;;;;;;;;;;;;;;;4971251;28;20045;-77
2022/10/04 00:28:30;;;;;;;;;;;;;;;;;;4966008;28;19914;-78
2022/10/04 00:31:16;;;;;;;;;;;;;;;;;;4966213;28;19973;-77
2022/10/04 00:33:43;;;;;;;;;;;;;;;;;;4966269;28;19919;-77
2022/10/04 00:36:23;;;;;;;;;;;;;;;;;;4966199;28;19914;-77
2022/10/04 00:39:06;;;;;;;;;;;;;;;;;;4968242;28;19913;-76
2022/10/04 00:41:37;;;;;;;;;;;;;;;;;;4969269;28;19920;-77
2022/10/04 00:44:04;;;;;;;;;;;;;;;;;;4964572;28;19919;-77
2022/10/04 00:46:30;;;;;;;;;;;;;;;;;;4970501;28;19929;-79
2022/10/04 00:48:56;;;;;;;;;;;;;;;;;;4967709;28;19910;-78
2022/10/04 00:51:22;;;;;;;;;;;;;;;;;;4967643;28;19910;-77
2022/10/04 00:53:53;;;;;;;;;;;;;;;;;;4973113;28;20009;-77
2022/10/04 00:56:24;;;;;;;;;;;;;;;;;;4965898;28;19918;-77
2022/10/04 00:58:58;;;;;;;;;;;;;;;;;;4976210;28;19961;-77
2022/10/04 01:01:26;;;;;;;;;;;;;;;;;;4979330;28;19906;-78
2022/10/04 01:03:53;;;;;;;;;;;;;;;;;;4978645;28;19981;-80
2022/10/04 01:06:19;;;;;;;;;;;;;;;;;;4981118;28;19909;-77
2022/10/04 01:08:47;;;;;;;;;;;;;;;;;;4980498;28;19926;-77
2022/10/04 01:11:14;;;;;;;;;;;;;;;;;;4977155;28;19917;-77
2022/10/04 01:13:44;;;;;;;;;;;;;;;;;;4980581;28;19974;-77
2022/10/04 01:16:12;;;;;;;;;;;;;;;;;;4981529;28;19977;-77
2022/10/04 01:18:37;;;;;;;;;;;;;;;;;;4978019;28;19957;-81
2022/10/04 01:21:22;;;;;;;;;;;;;;;;;;4980838;28;19925;-78
2022/10/04 01:23:56;;;;;;;;;;;;;;;;;;4975338;28;19918;-77
2022/10/04 01:26:33;;;;;;;;;;;;;;;;;;4984883;28;20228;-77
2022/10/04 01:29:37;;;;;;;;;;;;;;;;;;4983161;28;19914;-77
2022/10/04 01:32:02;;;;;;;;;;;;;;;;;;4893555;29;19986;-77
2022/10/04 01:34:28;;;;;;;;;;;;;;;;;;4874097;29;20233;-77
2022/10/04 01:36:56;;;;;;;;;;;;;;;;;;4926185;28;19910;-78
2022/10/04 01:39:22;;;;;;;;;;;;;;;;;;4972035;28;19911;-76
2022/10/04 01:41:54;;;;;;;;;;;;;;;;;;4974994;28;19989;-78
2022/10/04 01:44:29;;;;;;;;;;;;;;;;;;4969938;28;19949;-77
2022/10/04 01:46:57;;;;;;;;;;;;;;;;;;4972080;28;19985;-76
2022/10/04 01:49:25;;;;;;;;;;;;;;;;;;4979608;28;20394;-76
2022/10/04 01:51:55;;;;;;;;;;;;;;;;;;4971066;28;19952;-77
2022/10/04 01:54:24;;;;;;;;;;;;;;;;;;4970753;28;19914;-77
2022/10/04 01:56:58;;;;;;;;;;;;;;;;;;4973164;28;19917;-77
2022/10/04 01:59:26;;;;;;;;;;;;;;;;;;4969747;28;19906;-78
2022/10/04 02:01:58;;;;;;;;;;;;;;;;;;4965999;28;19930;-84
2022/10/04 02:04:26;;;;;;;;;;;;;;;;;;4961393;28;19918;-77
2022/10/04 02:06:53;;;;;;;;;;;;;;;;;;4970135;28;19957;-77
2022/10/04 02:09:22;;;;;;;;;;;;;;;;;;4982749;28;20130;-79
2022/10/04 02:11:51;;;;;;;;;;;;;;;;;;4970682;28;19925;-77
2022/10/04 02:14:18;;;;;;;;;;;;;;;;;;4972460;28;19982;-77
2022/10/04 02:16:45;;;;;;;;;;;;;;;;;;4969350;28;19953;-77
2022/10/04 02:19:11;;;;;;;;;;;;;;;;;;4980829;28;19994;-82
2022/10/04 02:21:36;;;;;;;;;;;;;;;;;;4982613;28;19968;-77
2022/10/04 02:24:03;;;;;;;;;;;;;;;;;;4984205;28;20048;-76
2022/10/04 02:26:28;;;;;;;;;;;;;;;;;;4974291;28;20008;-76
2022/10/04 02:28:53;;;;;;;;;;;;;;;;;;4981538;28;20289;-77
2022/10/04 02:34:05;;;;;;;;;;;;;;;;;;4984425;28;20245;-84
2022/10/04 02:36:32;;;;;;;;;;;;;;;;;;4983695;28;19910;-78
2022/10/04 02:39:00;;;;;;;;;;;;;;;;;;4983990;28;19910;-77
2022/10/04 02:41:25;;;;;;;;;;;;;;;;;;4984031;28;19949;-81
2022/10/04 02:44:01;;;;;;;;;;;;;;;;;;4984102;28;19917;-77
2022/10/04 02:46:30;;;;;;;;;;;;;;;;;;4984054;28;19941;-77
2022/10/04 02:48:57;;;;;;;;;;;;;;;;;;4984129;28;19981;-77
2022/10/04 02:51:25;;;;;;;;;;;;;;;;;;4983891;28;19910;-81
2022/10/04 02:53:56;;;;;;;;;;;;;;;;;;4983896;28;20098;-83
2022/10/04 02:56:23;;;;;;;;;;;;;;;;;;4977770;28;20182;-81
2022/10/04 02:58:49;;;;;;;;;;;;;;;;;;4983802;28;19933;-81
2022/10/04 03:01:16;;;;;;;;;;;;;;;;;;4983948;28;19941;-77
2022/10/04 03:03:43;;;;;;;;;;;;;;;;;;4983452;28;19917;-79
2022/10/04 03:06:09;;;;;;;;;;;;;;;;;;4983602;28;20221;-77
2022/10/04 03:08:36;;;;;;;;;;;;;;;;;;4983401;28;19906;-77
2022/10/04 03:11:03;;;;;;;;;;;;;;;;;;4983849;28;19910;-76
2022/10/04 03:13:29;;;;;;;;;;;;;;;;;;4980741;28;19957;-80
2022/10/04 03:15:54;;;;;;;;;;;;;;;;;;4982517;28;19976;-80
2022/10/04 03:18:20;;;;;;;;;;;;;;;;;;4983559;28;19966;-77
2022/10/04 03:20:45;;;;;;;;;;;;;;;;;;4983135;28;19906;-77
2022/10/04 03:23:12;;;;;;;;;;;;;;;;;;4983032;28;20098;-80
2022/10/04 03:25:43;;;;;;;;;;;;;;;;;;4983055;28;19910;-76
2022/10/04 03:28:09;;;;;;;;;;;;;;;;;;4983121;28;19913;-76
2022/10/04 03:30:35;;;;;;;;;;;;;;;;;;4983084;28;19910;-76
2022/10/04 03:33:00;;;;;;;;;;;;;;;;;;4983238;28;20067;-76
2022/10/04 03:35:33;;;;;;;;;;;;;;;;;;4982727;28;19914;-77
2022/10/04 03:38:00;;;;;;;;;;;;;;;;;;4983195;28;19910;-77
2022/10/04 03:40:28;;;;;;;;;;;;;;;;;;4982934;28;19921;-76
2022/10/04 03:42:53;;;;;;;;;;;;;;;;;;4983112;28;20083;-77
2022/10/04 03:45:20;;;;;;;;;;;;;;;;;;4981889;28;19929;-77
2022/10/04 03:47:47;;;;;;;;;;;;;;;;;;4982171;28;19917;-76
2022/10/04 03:50:12;;;;;;;;;;;;;;;;;;4982438;28;19956;-78
2022/10/04 03:52:39;;;;;;;;;;;;;;;;;;4981866;28;19949;-76
2022/10/04 03:55:05;;;;;;;;;;;;;;;;;;4982712;28;19915;-76
2022/10/04 03:57:31;;;;;;;;;;;;;;;;;;4981638;28;19993;-76
2022/10/04 03:59:57;;;;;;;;;;;;;;;;;;4982792;28;19924;-77
2022/10/04 04:02:41;;;;;;;;;;;;;;;;;;4982759;28;19910;-77
2022/10/04 04:05:14;;;;;;;;;;;;;;;;;;4982340;28;19964;-77
2022/10/04 04:07:45;;;;;;;;;;;;;;;;;;4982918;28;19916;-78
2022/10/04 04:10:13;;;;;;;;;;;;;;;;;;4982611;28;19917;-76
2022/10/04 04:12:42;;;;;;;;;;;;;;;;;;4982807;28;19917;-76
2022/10/04 04:15:12;;;;;;;;;;;;;;;;;;4982419;28;20098;-80
2022/10/04 04:17:43;;;;;;;;;;;;;;;;;;4975246;28;19910;-76
2022/10/04 04:20:16;;;;;;;;;;;;;;;;;;4982392;28;19918;-77
2022/10/04 04:22:45;;;;;;;;;;;;;;;;;;4982037;28;19926;-77
2022/10/04 04:25:13;;;;;;;;;;;;;;;;;;4982472;28;19925;-78
2022/10/04 04:27:40;;;;;;;;;;;;;;;;;;4982233;28;19916;-76
2022/10/04 04:30:07;;;;;;;;;;;;;;;;;;4982502;28;19910;-78
2022/10/04 04:32:35;;;;;;;;;;;;;;;;;;4982273;28;19981;-82
2022/10/04 04:35:07;;;;;;;;;;;;;;;;;;4982392;28;19945;-77
2022/10/04 04:37:36;;;;;;;;;;;;;;;;;;4981963;28;19921;-76
2022/10/04 04:40:31;;;;;;;;;;;;;;;;;;4981996;28;19957;-76
2022/10/04 04:42:58;;;;;;;;;;;;;;;;;;4970955;28;19938;-78
2022/10/04 04:45:25;;;;;;;;;;;;;;;;;;4982599;28;19949;-77
2022/10/04 04:47:56;;;;;;;;;;;;;;;;;;4982296;28;19943;-77
2022/10/04 04:50:29;;;;;;;;;;;;;;;;;;4981661;28;20221;-76
2022/10/04 04:52:54;;;;;;;;;;;;;;;;;;4982116;28;19910;-76
2022/10/04 04:55:21;;;;;;;;;;;;;;;;;;4981846;28;19949;-78
2022/10/04 04:57:48;;;;;;;;;;;;;;;;;;4982073;28;19910;-76
2022/10/04 05:00:18;;;;;;;;;;;;;;;;;;4985092;28;20210;-76
2022/10/04 05:02:50;;;;;;;;;;;;;;;;;;4985876;28;19914;-77
2022/10/04 05:05:23;;;;;;;;;;;;;;;;;;4985602;28;19914;-77
2022/10/04 05:07:49;;;;;;;;;;;;;;;;;;4980065;28;19917;-76
2022/10/04 05:10:29;;;;;;;;;;;;;;;;;;4981466;28;19926;-78
2022/10/04 05:12:54;;;;;;;;;;;;;;;;;;4981065;28;19910;-77
2022/10/04 05:15:21;;;;;;;;;;;;;;;;;;4982786;28;19910;-76
2022/10/04 05:17:46;;;;;;;;;;;;;;;;;;4985885;28;20222;-77
2022/10/04 05:20:13;;;;;;;;;;;;;;;;;;4985498;28;19910;-81
2022/10/04 05:22:40;;;;;;;;;;;;;;;;;;4985403;28;19938;-77
2022/10/04 05:25:09;;;;;;;;;;;;;;;;;;4985269;28;19973;-77
2022/10/04 05:27:36;;;;;;;;;;;;;;;;;;4985546;28;19910;-76
2022/10/04 05:30:01;;;;;;;;;;;;;;;;;;4985322;28;20210;-77
2022/10/04 05:32:33;;;;;;;;;;;;;;;;;;4985063;28;19990;-77
2022/10/04 05:34:59;;;;;;;;;;;;;;;;;;4985192;28;19917;-78
2022/10/04 05:37:33;;;;;;;;;;;;;;;;;;4985232;28;19918;-76
2022/10/04 05:40:14;;;;;;;;;;;;;;;;;;4985241;28;19921;-78
2022/10/04 05:42:46;;;;;;;;;;;;;;;;;;4984996;28;19953;-76
2022/10/04 05:45:11;;;;;;;;;;;;;;;;;;4985284;28;20360;-77
2022/10/04 05:47:39;;;;;;;;;;;;;;;;;;4985191;28;19910;-78
2022/10/04 05:50:05;;;;;;;;;;;;;;;;;;4984509;28;19976;-79
2022/10/04 05:52:34;;;;;;;;;;;;;;;;;;4985192;28;19917;-77
2022/10/04 05:55:18;;;;;;;;;;;;;;;;;;4984824;28;19917;-79
2022/10/04 05:57:43;;;;;;;;;;;;;;;;;;4984859;28;19910;-76
2022/10/04 06:00:26;;;;;;;;;;;;;;;;;;4984592;28;19910;-77
2022/10/04 06:02:54;;;;;;;;;;;;;;;;;;4979130;28;19914;-77
2022/10/04 06:05:26;;;;;;;;;;;;;;;;;;4984194;28;20151;-77
2022/10/04 06:08:24;;;;;;;;;;;;;;;;;;4984436;28;19965;-77
2022/10/04 06:10:58;;;;;;;;;;;;;;;;;;4946505;28;20030;-77
2022/10/04 06:13:35;;;;;;;;;;;;;;;;;;4984457;28;19941;-76
2022/10/04 06:16:21;;;;;;;;;;;;;;;;;;4978541;28;19917;-78
2022/10/04 06:18:58;;;;;;;;;;;;;;;;;;4984530;28;20029;-77
2022/10/04 06:21:23;;;;;;;;;;;;;;;;;;4984085;28;19910;-78
2022/10/04 06:23:58;;;;;;;;;;;;;;;;;;4983564;28;19922;-79
2022/10/04 06:26:46;;;;;;;;;;;;;;;;;;4984205;28;19990;-78
2022/10/04 06:29:17;;;;;;;;;;;;;;;;;;4955098;28;19914;-79
2022/10/04 06:32:08;;;;;;;;;;;;;;;;;;4984530;28;19914;-83
2022/10/04 06:34:53;;;;;;;;;;;;;;;;;;4959084;28;19918;-78
2022/10/04 06:37:19;;;;;;;;;;;;;;;;;;4978187;28;19922;-78
2022/10/04 06:40:02;;;;;;;;;;;;;;;;;;4983211;28;19921;-77
2022/10/04 06:42:47;;;;;;;;;;;;;;;;;;4979702;28;19917;-77
2022/10/04 06:45:19;;;;;;;;;;;;;;;;;;4984072;28;19910;-77
2022/10/04 06:48:03;;;;;;;;;;;;;;;;;;4984108;28;20206;-77
2022/10/04 06:50:45;;;;;;;;;;;;;;;;;;4977813;28;19910;-79
2022/10/04 06:53:19;;;;;;;;;;;;;;;;;;4979692;28;19933;-77
2022/10/04 06:56:09;;;;;;;;;;;;;;;;;;4983863;28;19953;-77
2022/10/04 06:58:34;;;;;;;;;;;;;;;;;;4983626;28;19941;-78
2022/10/04 07:01:18;;;;;;;;;;;;;;;;;;4983861;28;20222;-84
2022/10/04 07:03:55;;;;;;;;;;;;;;;;;;4981361;28;19917;-79
2022/10/04 07:06:26;;;;;;;;;;;;;;;;;;4983598;28;20167;-81
2022/10/04 07:08:58;;;;;;;;;;;;;;;;;;4983724;28;19918;-83
2022/10/04 07:11:26;;;;;;;;;;;;;;;;;;4983234;28;19956;-81
2022/10/04 07:13:56;;;;;;;;;;;;;;;;;;4983537;28;20249;-80
2022/10/04 07:16:27;;;;;;;;;;;;;;;;;;4983682;28;19917;-82
2022/10/04 07:19:08;;;;;;;;;;;;;;;;;;4983256;28;19977;-78
2022/10/04 07:21:37;;;;;;;;;;;;;;;;;;4983433;28;19925;-78
2022/10/04 07:24:05;;;;;;;;;;;;;;;;;;4983435;28;19910;-80
2022/10/04 07:26:34;;;;;;;;;;;;;;;;;;4982894;28;19989;-80
2022/10/04 07:29:20;;;;;;;;;;;;;;;;;;4983342;28;20107;-80
2022/10/04 07:31:47;;;;;;;;;;;;;;;;;;4983417;28;19910;-80
2022/10/04 07:34:15;;;;;;;;;;;;;;;;;;4983027;28;19944;-82
2022/10/04 07:36:40;;;;;;;;;;;;;;;;;;4982984;28;19924;-79
2022/10/04 07:39:09;;;;;;;;;;;;;;;;;;4981158;28;20066;-79
2022/10/04 07:41:38;;;;;;;;;;;;;;;;;;4982470;28;19914;-81
2022/10/04 07:44:12;;;;;;;;;;;;;;;;;;4981602;28;19917;-78
2022/10/04 07:46:37;;;;;;;;;;;;;;;;;;4981045;28;20226;-82
2022/10/04 07:49:03;;;;;;;;;;;;;;;;;;4982562;28;19945;-78
2022/10/04 07:51:50;;;;;;;;;;;;;;;;;;4981321;28;20008;-78
2022/10/04 07:54:25;;;;;;;;;;;;;;;;;;4982892;28;19953;-78
2022/10/04 07:56:59;;;;;;;;;;;;;;;;;;4982784;28;19910;-79
2022/10/04 07:59:36;;;;;;;;;;;;;;;;;;4982838;28;19906;-82
2022/10/04 08:02:07;;;;;;;;;;;;;;;;;;4980446;28;20114;-78
2022/10/04 08:04:36;;;;;;;;;;;;;;;;;;4981121;28;20176;-81
2022/10/04 08:07:04;;;;;;;;;;;;;;;;;;4982541;28;19956;-80
2022/10/04 08:09:38;;;;;;;;;;;;;;;;;;4982654;28;20209;-81
2022/10/04 08:12:09;;;;;;;;;;;;;;;;;;4980568;28;20198;-80
2022/10/04 08:14:49;;;;;;;;;;;;;;;;;;4978659;28;19947;-79
2022/10/04 08:17:14;;;;;;;;;;;;;;;;;;4982192;28;19952;-80
2022/10/04 08:19:43;;;;;;;;;;;;;;;;;;4982047;28;19921;-82
2022/10/04 08:22:14;;;;;;;;;;;;;;;;;;4982640;28;20258;-79
2022/10/04 08:24:58;;;;;;;;;;;;;;;;;;4981795;28;19925;-79
2022/10/04 08:29:41;;;;;;;;;;;;;;;;;;4976223;28;19910;-78
2022/10/04 08:30:29;;;;;;;;;;;;;;;;;;4982240;28;20095;-80
2022/10/04 08:32:54;;;;;;;;;;;;;;;;;;4982414;28;19910;-83
2022/10/04 08:35:35;;;;;;;;;;;;;;;;;;4981454;28;19921;-83
2022/10/04 08:38:00;;;;;;;;;;;;;;;;;;4982409;28;19913;-80
2022/10/04 08:40:32;;;;;;;;;;;;;;;;;;4981934;28;19914;-78
2022/10/04 08:43:03;;;;;;;;;;;;;;;;;;4982360;28;20094;-81
2022/10/04 08:45:36;;;;;;;;;;;;;;;;;;4981071;28;19914;-81
2022/10/04 08:48:01;;;;;;;;;;;;;;;;;;4976980;28;19917;-83
2022/10/04 08:50:45;;;;;;;;;;;;;;;;;;4981762;28;19985;-80
2022/10/04 08:53:11;;;;;;;;;;;;;;;;;;4982159;28;19985;-82
2022/10/04 08:55:36;;;;;;;;;;;;;;;;;;4981906;28;20203;-82
2022/10/04 08:58:04;;;;;;;;;;;;;;;;;;4981984;28;19910;-83
2022/10/04 09:00:48;;;;;;;;;;;;;;;;;;4981815;28;19949;-78
2022/10/04 09:03:36;;;;;;;;;;;;;;;;;;4981802;28;19977;-82
2022/10/04 09:06:07;;;;;;;;;;;;;;;;;;4972961;28;19937;-78
2022/10/04 09:08:51;;;;;;;;;;;;;;;;;;4977227;28;19922;-83
2022/10/04 09:11:19;;;;;;;;;;;;;;;;;;4981994;28;20103;-78
2022/10/04 09:13:54;;;;;;;;;;;;;;;;;;4981914;28;19949;-82
2022/10/04 09:16:38;;;;;;;;;;;;;;;;;;4981923;28;19910;-82
2022/10/04 09:19:18;;;;;;;;;;;;;;;;;;4981323;28;19906;-78
2022/10/04 09:21:46;;;;;;;;;;;;;;;;;;4976581;28;20198;-83
2022/10/04 09:24:30;;;;;;;;;;;;;;;;;;4976950;28;19910;-81
2022/10/04 09:27:14;;;;;;;;;;;;;;;;;;4982001;28;20315;-79
2022/10/04 09:29:45;;;;;;;;;;;;;;;;;;4981658;28;19918;-81
2022/10/04 09:32:29;;;;;;;;;;;;;;;;;;4982051;28;19914;-82
2022/10/04 09:34:54;;;;;;;;;;;;;;;;;;4976676;28;19933;-80
2022/10/04 09:37:38;;;;;;;;;;;;;;;;;;4981646;28;20252;-82
2022/10/04 09:40:24;;;;;;;;;;;;;;;;;;4981426;28;19929;-82
2022/10/04 09:43:16;;;;;;;;;;;;;;;;;;4981774;28;19988;-80
2022/10/04 09:46:06;;;;;;;;;;;;;;;;;;4978294;28;19917;-81
2022/10/04 09:48:31;;;;;;;;;;;;;;;;;;4976567;28;19914;-81
2022/10/04 09:51:15;;;;;;;;;;;;;;;;;;4984880;28;19910;-81
2022/10/04 09:54:18;;;;;;;;;;;;;;;;;;4983462;28;19914;-82
2022/10/04 09:56:47;;;;;;;;;;;;;;;;;;4925699;29;19931;-80
2022/10/04 09:59:31;;;;;;;;;;;;;;;;;;4973758;28;19925;-78
2022/10/04 10:01:59;;;;;;;;;;;;;;;;;;4979748;28;20005;-81
2022/10/04 10:04:24;;;;;;;;;;;;;;;;;;4984382;28;20079;-78
2022/10/04 10:06:58;;;;;;;;;;;;;;;;;;4984461;28;19952;-83
2022/10/04 10:15:16;;;;;;;;;;;;;;;;;;4982392;28;19917;-79
2022/10/04 10:17:44;;;;;;;;;;;;;;;;;;4977263;28;20249;-80
2022/10/04 10:20:19;;;;;;;;;;;;;;;;;;4979887;28;19921;-81
2022/10/04 10:23:04;;;;;;;;;;;;;;;;;;4976632;28;19925;-81
2022/10/04 10:25:50;;;;;;;;;;;;;;;;;;4984221;28;19973;-81
2022/10/04 10:28:35;;;;;;;;;;;;;;;;;;4960342;28;19910;-86
2022/10/04 10:31:04;;;;;;;;;;;;;;;;;;4961298;28;19910;-85
2022/10/04 10:33:38;;;;;;;;;;;;;;;;;;4984479;28;19910;-84
2022/10/04 10:36:07;;;;;;;;;;;;;;;;;;4982404;28;19957;-86
2022/10/04 10:38:35;;;;;;;;;;;;;;;;;;4983273;28;19910;-82
2022/10/04 10:41:18;;;;;;;;;;;;;;;;;;4984357;28;19952;-87
2022/10/04 10:43:45;;;;;;;;;;;;;;;;;;4980677;28;19980;-85
2022/10/04 10:46:10;;;;;;;;;;;;;;;;;;4984198;28;19909;-87
2022/10/04 10:48:55;;;;;;;;;;;;;;;;;;4984111;28;19945;-84
2022/10/04 10:51:39;;;;;;;;;;;;;;;;;;4979627;28;19910;-83
2022/10/04 10:54:31;;;;;;;;;;;;;;;;;;4981898;28;19910;-86
2022/10/04 10:56:59;;;;;;;;;;;;;;;;;;4980093;28;19906;-87
2022/10/04 10:59:44;;;;;;;;;;;;;;;;;;4984106;28;19909;-83
2022/10/04 11:02:28;;;;;;;;;;;;;;;;;;4983955;28;19917;-83
2022/10/04 11:04:59;;;;;;;;;;;;;;;;;;4982444;28;20216;-82
2022/10/04 11:07:41;;;;;;;;;;;;;;;;;;4983655;28;19956;-86
2022/10/04 11:10:15;;;;;;;;;;;;;;;;;;4978206;28;19969;-86
2022/10/04 11:12:46;;;;;;;;;;;;;;;;;;4983875;28;19922;-82
2022/10/04 11:15:37;;;;;;;;;;;;;;;;;;4983494;28;19980;-85
2022/10/04 11:18:05;;;;;;;;;;;;;;;;;;4982743;28;19910;-88
2022/10/04 11:20:43;;;;;;;;;;;;;;;;;;4983366;28;19910;-87
2022/10/04 11:23:27;;;;;;;;;;;;;;;;;;4982118;28;20121;-84
2022/10/04 11:26:11;;;;;;;;;;;;;;;;;;4981501;28;19914;-83
2022/10/04 11:28:41;;;;;;;;;;;;;;;;;;4983550;28;19905;-82
2022/10/04 11:31:12;;;;;;;;;;;;;;;;;;4983558;28;19934;-83
2022/10/04 11:33:40;;;;;;;;;;;;;;;;;;4976910;28;20098;-85
2022/10/04 11:36:11;;;;;;;;;;;;;;;;;;4983088;28;19916;-81
2022/10/04 11:38:51;;;;;;;;;;;;;;;;;;4982082;28;20192;-82
2022/10/04 11:41:19;;;;;;;;;;;;;;;;;;4981782;28;19914;-80
2022/10/04 11:43:48;;;;;;;;;;;;;;;;;;4983051;28;19917;-82
2022/10/04 11:46:17;;;;;;;;;;;;;;;;;;4983278;28;19917;-82
2022/10/04 11:48:52;;;;;;;;;;;;;;;;;;4982802;28;19953;-84
2022/10/04 11:51:26;;;;;;;;;;;;;;;;;;4982906;28;20113;-81
2022/10/04 11:54:11;;;;;;;;;;;;;;;;;;4979160;28;19906;-82
2022/10/04 11:56:43;;;;;;;;;;;;;;;;;;4982801;28;19909;-83
2022/10/04 11:59:24;;;;;;;;;;;;;;;;;;4982892;28;19910;-84
2022/10/04 12:02:17;;;;;;;;;;;;;;;;;;4977787;28;19917;-84
2022/10/04 12:04:42;;;;;;;;;;;;;;;;;;4974781;28;19922;-82
2022/10/04 12:07:22;;;;;;;;;;;;;;;;;;4979980;28;19960;-81
2022/10/04 12:09:54;;;;;;;;;;;;;;;;;;4980823;28;19933;-83
2022/10/04 12:12:38;;;;;;;;;;;;;;;;;;4996049;28;19913;-84
2022/10/04 12:15:19;;;;;;;;;;;;;;;;;;4977621;28;20220;-81
2022/10/04 12:17:45;;;;;;;;;;;;;;;;;;4979600;28;20037;-83
2022/10/04 12:20:31;;;;;;;;;;;;;;;;;;4981865;28;19918;-83
2022/10/04 12:22:59;;;;;;;;;;;;;;;;;;4980758;28;19909;-80
2022/10/04 12:25:36;;;;;;;;;;;;;;;;;;4981304;28;19918;-82
2022/10/04 12:28:10;;;;;;;;;;;;;;;;;;4981632;28;19949;-83
2022/10/04 12:30:35;;;;;;;;;;;;;;;;;;4976817;28;20598;-78
2022/10/04 12:33:16;;;;;;;;;;;;;;;;;;4982188;28;19997;-84
2022/10/04 12:35:56;;;;;;;;;;;;;;;;;;4982139;28;19910;-83
2022/10/04 12:38:36;;;;;;;;;;;;;;;;;;4982308;28;19946;-82
2022/10/04 12:41:14;;;;;;;;;;;;;;;;;;4981131;28;19914;-84
2022/10/04 12:43:42;;;;;;;;;;;;;;;;;;4982043;28;19964;-83
2022/10/04 12:46:16;;;;;;;;;;;;;;;;;;4980409;28;19930;-81
2022/10/04 12:48:41;;;;;;;;;;;;;;;;;;4982005;28;19918;-83
2022/10/04 12:51:09;;;;;;;;;;;;;;;;;;4981197;28;19914;-80
2022/10/04 12:53:37;;;;;;;;;;;;;;;;;;4981665;28;19973;-82
2022/10/04 12:56:05;;;;;;;;;;;;;;;;;;4981710;28;19925;-83
2022/10/04 12:58:42;;;;;;;;;;;;;;;;;;4979140;28;19937;-81
2022/10/04 13:01:30;;;;;;;;;;;;;;;;;;4980376;28;20442;-83
2022/10/04 13:04:12;;;;;;;;;;;;;;;;;;4968765;28;19922;-84
2022/10/04 13:06:40;;;;;;;;;;;;;;;;;;4981912;28;19910;-83
2022/10/04 13:09:28;;;;;;;;;;;;;;;;;;4981882;28;19912;-82
2022/10/04 13:12:08;;;;;;;;;;;;;;;;;;4961681;28;19922;-81
2022/10/04 13:14:43;;;;;;;;;;;;;;;;;;4981273;28;19926;-83
2022/10/04 13:17:23;;;;;;;;;;;;;;;;;;4981906;28;19910;-86
2022/10/04 13:20:07;;;;;;;;;;;;;;;;;;4980905;28;19937;-82
2022/10/04 13:22:44;;;;;;;;;;;;;;;;;;4982520;28;19933;-83
2022/10/04 13:25:17;;;;;;;;;;;;;;;;;;4983623;28;19965;-84
2022/10/04 13:27:58;;;;;;;;;;;;;;;;;;4982549;28;20036;-84
2022/10/04 13:30:34;;;;;;;;;;;;;;;;;;4984808;28;20029;-82
2022/10/04 13:33:05;;;;;;;;;;;;;;;;;;4984693;28;19910;-81
2022/10/04 13:35:39;;;;;;;;;;;;;;;;;;4983785;28;20198;-81
2022/10/04 13:38:23;;;;;;;;;;;;;;;;;;4984780;28;19910;-84
2022/10/04 13:41:07;;;;;;;;;;;;;;;;;;4979423;28;20467;-84
2022/10/04 13:43:42;;;;;;;;;;;;;;;;;;4984462;28;19978;-82
2022/10/04 13:46:07;;;;;;;;;;;;;;;;;;4979599;28;19918;-86
2022/10/04 13:48:42;;;;;;;;;;;;;;;;;;4982777;28;20118;-83
2022/10/04 13:51:22;;;;;;;;;;;;;;;;;;4983125;28;19949;-84
2022/10/04 13:57:18;;;;;;;;;;;;;;;;;;4975990;28;19929;-81
2022/10/04 13:59:51;;;;;;;;;;;;;;;;;;4937784;28;20110;-81
2022/10/04 14:02:16;;;;;;;;;;;;;;;;;;4975716;28;19914;-86
2022/10/04 14:04:41;;;;;;;;;;;;;;;;;;4979955;28;19957;-82
2022/10/04 14:07:25;;;;;;;;;;;;;;;;;;4982428;28;19914;-82
2022/10/04 14:10:02;;;;;;;;;;;;;;;;;;4983706;28;20241;-83
2022/10/04 14:12:46;;;;;;;;;;;;;;;;;;4981551;28;19989;-83
2022/10/04 14:15:24;;;;;;;;;;;;;;;;;;4982905;28;19913;-84
2022/10/04 14:17:53;;;;;;;;;;;;;;;;;;4983081;28;20198;-84
2022/10/04 14:20:32;;;;;;;;;;;;;;;;;;4982583;28;20139;-83
2022/10/04 14:22:57;;;;;;;;;;;;;;;;;;4983448;28;19942;-84
2022/10/04 14:25:41;;;;;;;;;;;;;;;;;;4980271;28;19928;-82
2022/10/04 14:28:13;;;;;;;;;;;;;;;;;;4979349;28;19977;-85
2022/10/04 14:30:38;;;;;;;;;;;;;;;;;;4982673;28;20157;-84
2022/10/04 14:33:13;;;;;;;;;;;;;;;;;;4981019;28;19914;-84
2022/10/04 14:35:44;;;;;;;;;;;;;;;;;;4981214;28;19977;-84
2022/10/04 14:38:28;;;;;;;;;;;;;;;;;;4983637;28;20258;-82
2022/10/04 14:40:59;;;;;;;;;;;;;;;;;;4982668;28;20290;-82
2022/10/04 14:43:39;;;;;;;;;;;;;;;;;;4983396;28;19929;-83
2022/10/04 14:46:19;;;;;;;;;;;;;;;;;;4976306;28;20208;-83
2022/10/04 14:48:57;;;;;;;;;;;;;;;;;;4980576;28;19914;-82
2022/10/04 14:51:25;;;;;;;;;;;;;;;;;;4983506;28;20217;-84
2022/10/04 14:53:55;;;;;;;;;;;;;;;;;;4983421;28;19922;-85
2022/10/04 14:56:25;;;;;;;;;;;;;;;;;;4982906;28;19928;-84
2022/10/04 14:59:05;;;;;;;;;;;;;;;;;;4981839;28;19916;-82
2022/10/04 15:01:32;;;;;;;;;;;;;;;;;;4978788;28;19917;-85
2022/10/04 15:04:03;;;;;;;;;;;;;;;;;;4980970;28;20237;-85
2022/10/04 15:06:36;;;;;;;;;;;;;;;;;;4983292;28;19917;-85
2022/10/04 15:09:12;;;;;;;;;;;;;;;;;;4975870;28;19917;-84
2022/10/04 15:11:53;;;;;;;;;;;;;;;;;;4981228;28;19917;-83
2022/10/04 15:14:24;;;;;;;;;;;;;;;;;;4982940;28;19960;-83
2022/10/04 15:16:53;;;;;;;;;;;;;;;;;;4982417;28;19910;-85
2022/10/04 15:19:19;;;;;;;;;;;;;;;;;;4982847;28;19945;-84
2022/10/04 15:21:49;;;;;;;;;;;;;;;;;;4981550;28;19924;-82
2022/10/04 15:24:15;;;;;;;;;;;;;;;;;;4980934;28;19918;-82
2022/10/04 15:26:43;;;;;;;;;;;;;;;;;;4982111;28;20192;-83
2022/10/04 15:29:22;;;;;;;;;;;;;;;;;;4981938;28;19968;-81
2022/10/04 15:32:01;;;;;;;;;;;;;;;;;;4981639;28;19938;-83
2022/10/04 15:34:41;;;;;;;;;;;;;;;;;;4981812;28;19918;-84
2022/10/04 15:37:24;;;;;;;;;;;;;;;;;;4981572;28;19925;-82
2022/10/04 15:39:56;;;;;;;;;;;;;;;;;;4981583;28;19953;-82
2022/10/04 15:42:28;;;;;;;;;;;;;;;;;;4978672;28;19910;-86
2022/10/04 15:44:59;;;;;;;;;;;;;;;;;;4981031;28;19968;-81
2022/10/04 15:47:32;;;;;;;;;;;;;;;;;;4981510;28;19918;-82
2022/10/04 15:50:09;;;;;;;;;;;;;;;;;;4976612;28;19930;-84
2022/10/04 15:52:37;;;;;;;;;;;;;;;;;;4980256;28;20099;-83
2022/10/04 15:55:21;;;;;;;;;;;;;;;;;;4977937;28;20312;-87
2022/10/04 15:57:46;;;;;;;;;;;;;;;;;;4979127;28;19918;-85
2022/10/04 16:00:21;;;;;;;;;;;;;;;;;;4981636;28;19952;-84
2022/10/04 16:03:06;;;;;;;;;;;;;;;;;;4980444;28;19949;-86
2022/10/04 16:05:36;;;;;;;;;;;;;;;;;;4976488;28;19914;-85
2022/10/04 16:08:07;;;;;;;;;;;;;;;;;;4980305;28;19973;-83
2022/10/04 16:10:51;;;;;;;;;;;;;;;;;;4978380;28;19914;-86
2022/10/04 16:13:23;;;;;;;;;;;;;;;;;;4978091;28;20170;-85
2022/10/04 16:16:08;;;;;;;;;;;;;;;;;;4975388;28;19921;-86
2022/10/04 16:18:53;;;;;;;;;;;;;;;;;;4994375;28;20125;-84
2022/10/04 16:21:34;;;;;;;;;;;;;;;;;;4978856;28;19981;-85
2022/10/04 16:24:18;;;;;;;;;;;;;;;;;;4975824;28;19937;-84
2022/10/04 16:26:43;;;;;;;;;;;;;;;;;;4972705;28;19977;-84
2022/10/04 16:29:28;;;;;;;;;;;;;;;;;;4978592;28;19926;-86
2022/10/04 16:31:56;;;;;;;;;;;;;;;;;;4975404;28;19929;-85
2022/10/04 16:34:28;;;;;;;;;;;;;;;;;;4979466;28;20105;-85
2022/10/04 16:36:57;;;;;;;;;;;;;;;;;;4980120;28;19928;-86
2022/10/04 16:42:17;;;;;;;;;;;;;;;;;;4979923;28;19928;-79
2022/10/04 16:44:50;;;;;;;;;;;;;;;;;;4981588;28;19914;-80
2022/10/04 16:47:28;;;;;;;;;;;;;;;;;;4982423;28;19914;-79
2022/10/04 16:49:55;;;;;;;;;;;;;;;;;;4979476;28;19913;-79
2022/10/04 16:52:39;;;;;;;;;;;;;;;;;;4981062;28;20214;-78
2022/10/04 16:55:13;;;;;;;;;;;;;;;;;;4976267;28;19914;-81
2022/10/04 16:57:42;;;;;;;;;;;;;;;;;;4977071;28;19914;-83
2022/10/04 17:00:45;;;;;;;;;;;;;;;;;;4981154;28;19921;-79
2022/10/04 17:03:24;;;;;;;;;;;;;;;;;;4929330;29;19915;-82
2022/10/04 17:05:52;;;;;;;;;;;;;;;;;;4925556;29;19915;-90
2022/10/04 17:08:21;;;;;;;;;;;;;;;;;;4961754;28;19914;-77
2022/10/04 17:10:47;;;;;;;;;;;;;;;;;;4984580;28;19914;-85
2022/10/04 17:13:12;;;;;;;;;;;;;;;;;;4984789;28;19921;-77
2022/10/04 17:15:56;;;;;;;;;;;;;;;;;;4985135;28;19922;-87
2022/10/04 17:18:30;;;;;;;;;;;;;;;;;;4985749;28;19914;-84
2022/10/04 17:20:57;;;;;;;;;;;;;;;;;;4985489;28;20131;-81
2022/10/04 17:23:29;;;;;;;;;;;;;;;;;;4986538;28;19917;-78
2022/10/04 17:26:03;;;;;;;;;;;;;;;;;;4986721;28;19910;-88
2022/10/04 17:28:29;;;;;;;;;;;;;;;;;;4979690;28;19918;-82
2022/10/04 17:30:57;;;;;;;;;;;;;;;;;;4985872;28;19932;-79
2022/10/04 17:33:23;;;;;;;;;;;;;;;;;;4978945;28;19906;-79
2022/10/04 17:36:06;;;;;;;;;;;;;;;;;;4986054;28;19917;-91
2022/10/04 17:38:34;;;;;;;;;;;;;;;;;;4980554;28;19913;-91
2022/10/04 17:41:15;;;;;;;;;;;;;;;;;;4984452;28;19930;-78